createdAt,value
2019-03-04T00:02:00.400Z,45.51
2019-03-04T00:04:30.590Z,44.20
2019-03-04T00:07:00.465Z,43.62
2019-03-04T00:09:30.425Z,44.71
2019-03-04T00:12:00.376Z,46.11
2019-03-04T00:14:30.367Z,45.67
2019-03-04T00:17:00.322Z,45.84
2019-03-04T00:19:30.319Z,46.20
2019-03-04T00:22:00.362Z,46.02
2019-03-04T00:24:30.343Z,45.97
2019-03-04T00:27:00.453Z,46.17
2019-03-04T00:29:30.281Z,46.46
2019-03-04T00:32:00.116Z,46.95
2019-03-04T00:34:30.030Z,46.96
2019-03-04T00:36:59.875Z,46.44
2019-03-04T00:39:29.831Z,46.42
2019-03-04T00:41:59.670Z,46.20
2019-03-04T00:44:29.628Z,46.64
2019-03-04T00:46:59.461Z,46.71
2019-03-04T00:49:29.473Z,46.43
2019-03-04T00:51:59.371Z,46.29
2019-03-04T00:54:29.327Z,46.43
2019-03-04T00:56:59.417Z,46.64
2019-03-04T00:59:31.317Z,47.12
2019-03-04T01:02:00.937Z,47.28
2019-03-04T01:04:30.769Z,47.30
2019-03-04T01:07:00.740Z,46.82
2019-03-04T01:09:30.666Z,47.49
2019-03-04T01:12:00.718Z,47.64
2019-03-04T01:14:30.734Z,47.83
2019-03-04T01:17:00.738Z,47.80
2019-03-04T01:19:30.643Z,48.19
2019-03-04T01:22:00.686Z,48.20
2019-03-04T01:24:30.697Z,48.44
2019-03-04T01:27:00.744Z,48.93
2019-03-04T01:29:30.723Z,48.44
2019-03-04T01:32:00.606Z,48.41
2019-03-04T01:34:30.702Z,48.35
2019-03-04T01:37:00.681Z,48.74
2019-03-04T01:39:30.629Z,48.59
2019-03-04T01:42:00.455Z,48.88
2019-03-04T01:44:30.417Z,48.93
2019-03-04T01:47:00.261Z,49.04
2019-03-04T01:49:30.184Z,49.08
2019-03-04T01:52:00.042Z,49.39
2019-03-04T01:54:30.094Z,49.02
2019-03-04T01:56:59.925Z,49.32
2019-03-04T01:59:29.783Z,49.40
2019-03-04T02:01:59.740Z,49.28
2019-03-04T02:04:29.772Z,49.48
2019-03-04T02:06:59.681Z,49.34
2019-03-04T02:09:29.699Z,49.40
2019-03-04T02:11:59.597Z,49.44
2019-03-04T02:14:29.584Z,49.13
2019-03-04T02:16:59.530Z,49.31
2019-03-04T02:19:29.567Z,49.25
2019-03-04T02:21:59.543Z,48.80
2019-03-04T02:24:29.582Z,49.69
2019-03-04T02:27:00.255Z,49.36
2019-03-04T02:29:30.199Z,49.70
2019-03-04T02:32:00.070Z,49.89
2019-03-04T02:34:29.894Z,50.30
2019-03-04T02:36:59.850Z,50.09
2019-03-04T02:39:29.746Z,49.36
2019-03-04T02:41:59.708Z,49.16
2019-03-04T02:44:29.656Z,49.27
2019-03-04T02:46:59.563Z,49.19
2019-03-04T02:49:29.501Z,49.38
2019-03-04T02:51:59.498Z,49.54
2019-03-04T02:54:29.456Z,49.40
2019-03-04T02:56:59.397Z,49.83
2019-03-04T02:59:29.364Z,49.55
2019-03-04T03:02:11.640Z,50.14
2019-03-04T03:22:02.679Z,49.45
2019-03-04T03:24:32.720Z,49.00
2019-03-04T03:27:02.716Z,49.08
2019-03-04T03:29:32.642Z,49.16
2019-03-04T03:32:02.643Z,48.85
2019-03-04T03:34:32.554Z,48.86
2019-03-04T03:37:02.904Z,48.06
2019-03-04T03:39:32.911Z,48.39
2019-03-04T03:42:02.886Z,48.02
2019-03-04T03:44:36.200Z,47.71
2019-03-04T03:47:06.105Z,47.80
2019-03-04T03:49:35.972Z,47.47
2019-03-04T03:52:06.161Z,47.46
2019-03-04T03:54:36.009Z,47.07
2019-03-04T03:57:05.964Z,47.07
2019-03-04T03:59:35.884Z,47.19
2019-03-04T04:02:05.869Z,47.26
2019-03-04T04:04:35.833Z,47.04
2019-03-04T04:07:05.782Z,47.37
2019-03-04T04:09:35.728Z,47.48
2019-03-04T04:12:05.689Z,46.67
2019-03-04T04:14:35.698Z,45.90
2019-03-04T04:17:05.727Z,46.25
2019-03-04T04:19:35.625Z,46.11
2019-03-04T04:22:05.676Z,46.60
2019-03-04T04:24:35.575Z,45.91
2019-03-04T04:27:05.598Z,46.77
2019-03-04T04:29:37.715Z,45.45
2019-03-04T04:32:07.777Z,46.07
2019-03-04T04:34:37.784Z,45.61
2019-03-04T04:37:07.609Z,45.25
2019-03-04T04:39:37.456Z,45.50
2019-03-04T04:42:07.286Z,45.29
2019-03-04T04:44:37.214Z,45.63
2019-03-04T04:47:09.931Z,45.36
2019-03-04T04:49:39.808Z,44.88
2019-03-04T04:52:09.708Z,45.16
2019-03-04T04:54:39.725Z,44.91
2019-03-04T04:57:09.624Z,44.87
2019-03-04T04:59:39.489Z,45.00
2019-03-04T05:02:09.350Z,45.12
2019-03-04T05:04:39.296Z,44.45
2019-03-04T05:07:09.293Z,45.19
2019-03-04T05:09:40.349Z,45.00
2019-03-04T05:12:10.242Z,46.82
2019-03-04T05:14:40.310Z,43.69
2019-03-04T05:17:10.120Z,44.70
2019-03-04T05:19:40.092Z,44.89
2019-03-04T05:22:09.987Z,44.45
2019-03-04T05:24:39.889Z,44.30
2019-03-04T05:27:09.861Z,43.80
2019-03-04T05:29:39.792Z,43.53
2019-03-04T05:32:09.764Z,44.02
2019-03-04T05:34:39.694Z,43.44
2019-03-04T05:37:10.637Z,42.77
2019-03-04T05:39:40.514Z,42.97
2019-03-04T05:42:10.463Z,43.17
2019-03-04T05:47:16.305Z,43.56
2019-03-04T05:49:46.273Z,43.17
2019-03-04T05:52:16.209Z,44.33
2019-03-04T05:54:46.106Z,43.66
2019-03-04T05:57:16.072Z,44.58
2019-03-04T05:59:46.000Z,44.25
2019-03-04T06:02:15.983Z,44.01
2019-03-04T06:04:47.004Z,44.18
2019-03-04T06:07:34.813Z,44.48
2019-03-04T06:10:05.878Z,44.63
2019-03-04T06:12:35.735Z,43.93
2019-03-04T06:15:06.860Z,44.32
2019-03-04T06:17:36.894Z,44.58
2019-03-04T06:20:07.582Z,44.21
2019-03-04T06:22:38.734Z,44.13
2019-03-04T06:25:12.122Z,44.26
2019-03-04T06:27:42.123Z,44.07
2019-03-04T06:30:15.009Z,44.84
2019-03-04T06:32:44.937Z,44.79
2019-03-04T06:35:15.124Z,44.32
2019-03-04T06:37:45.208Z,44.26
2019-03-04T06:40:15.686Z,44.55
2019-03-04T06:42:45.720Z,43.82
2019-03-04T06:45:15.917Z,44.18
2019-03-04T06:47:45.875Z,43.84
2019-03-04T06:50:50.063Z,43.65
2019-03-04T06:53:36.433Z,44.00
2019-03-04T06:56:10.202Z,43.64
2019-03-04T06:58:43.045Z,42.94
2019-03-04T07:01:38.955Z,42.88
2019-03-04T07:04:13.791Z,42.70
2019-03-04T07:06:43.684Z,42.82
2019-03-04T07:09:18.850Z,41.69
2019-03-04T07:11:49.901Z,42.21
2019-03-04T07:14:22.991Z,41.85
2019-03-04T07:16:53.617Z,41.89
2019-03-04T07:19:28.028Z,41.31
2019-03-04T07:21:57.971Z,41.46
2019-03-04T07:24:28.010Z,41.39
2019-03-04T07:26:57.994Z,40.67
2019-03-04T07:29:28.043Z,40.83
2019-03-04T07:31:57.955Z,40.25
2019-03-04T07:34:27.905Z,39.35
2019-03-04T07:36:57.872Z,39.30
2019-03-04T07:39:27.856Z,39.33
2019-03-04T07:41:59.403Z,38.80
2019-03-04T07:44:29.453Z,39.02
2019-03-04T07:46:59.308Z,38.07
2019-03-04T07:49:30.217Z,38.01
2019-03-04T07:52:00.176Z,38.17
2019-03-04T07:54:30.122Z,38.51
2019-03-04T07:57:00.197Z,37.11
2019-03-04T07:59:30.209Z,37.41
2019-03-04T08:02:00.189Z,36.85
2019-03-04T08:04:30.142Z,36.89
2019-03-04T08:07:42.860Z,36.32
2019-03-04T08:10:48.024Z,37.52
2019-03-04T08:13:24.784Z,35.42
2019-03-04T08:15:56.591Z,35.31
2019-03-04T08:18:26.551Z,35.44
2019-03-04T08:20:56.566Z,34.53
2019-03-04T08:23:26.657Z,34.31
2019-03-04T08:25:57.805Z,34.59
2019-03-04T08:28:27.919Z,33.60
2019-03-04T08:30:57.917Z,33.83
2019-03-04T08:33:27.889Z,32.80
2019-03-04T08:35:57.842Z,32.56
2019-03-04T08:38:27.814Z,31.69
2019-03-04T08:40:57.820Z,31.80
2019-03-04T08:43:27.881Z,31.56
2019-03-04T08:45:57.881Z,31.41
2019-03-04T08:48:27.848Z,32.31
2019-03-04T08:50:57.858Z,31.00
2019-03-04T08:53:27.875Z,30.42
2019-03-04T08:55:59.019Z,29.84
2019-03-04T08:58:28.870Z,29.35
2019-03-04T09:00:59.006Z,29.80
2019-03-04T09:03:29.067Z,29.37
2019-03-04T09:05:59.131Z,28.38
2019-03-04T09:08:29.102Z,29.09
2019-03-04T09:10:59.147Z,29.78
2019-03-04T09:13:30.564Z,28.74
2019-03-04T09:16:00.535Z,26.96
2019-03-04T09:18:32.083Z,26.39
2019-03-04T09:21:03.181Z,26.63
2019-03-04T09:23:33.048Z,26.07
2019-03-04T09:26:06.220Z,26.14
2019-03-04T09:28:36.125Z,25.72
2019-03-04T09:31:06.376Z,25.90
2019-03-04T09:33:36.332Z,26.06
2019-03-04T09:36:06.351Z,25.80
2019-03-04T09:38:36.401Z,25.75
2019-03-04T09:41:06.317Z,25.39
2019-03-04T09:43:36.230Z,26.13
2019-03-04T09:46:06.214Z,27.42
2019-03-04T09:48:36.260Z,27.63
2019-03-04T09:51:06.211Z,28.19
2019-03-04T09:53:39.443Z,28.47
2019-03-04T09:56:08.819Z,28.56
2019-03-04T09:58:38.805Z,28.77
2019-03-04T10:01:43.675Z,29.18
2019-03-04T10:04:28.071Z,29.09
2019-03-04T10:07:26.627Z,29.74
2019-03-04T10:10:27.662Z,29.92
2019-03-04T10:13:17.995Z,29.44
2019-03-04T10:16:18.935Z,30.11
2019-03-04T10:19:24.846Z,29.98
2019-03-04T10:22:38.019Z,30.35
2019-03-04T10:25:30.209Z,31.15
2019-03-04T10:28:37.891Z,32.36
2019-03-04T10:31:43.114Z,33.76
2019-03-04T10:34:49.031Z,34.95
2019-03-04T10:38:03.044Z,35.48
2019-03-04T10:40:52.392Z,36.44
2019-03-04T10:43:54.608Z,37.41
2019-03-04T10:46:54.568Z,37.12
2019-03-04T10:49:25.568Z,36.93
2019-03-04T10:51:55.638Z,36.75
2019-03-04T10:54:25.753Z,36.45
2019-03-04T10:56:55.881Z,36.34
2019-03-04T10:59:25.918Z,37.78
2019-03-04T11:01:55.931Z,39.16
2019-03-04T11:04:25.910Z,39.85
2019-03-04T11:06:56.184Z,40.27
2019-03-04T11:09:26.161Z,41.66
2019-03-04T11:11:56.240Z,42.22
2019-03-04T11:14:26.151Z,42.53
2019-03-04T11:16:56.092Z,43.90
2019-03-04T11:19:26.112Z,44.62
2019-03-04T11:21:56.058Z,45.19
2019-03-04T11:24:26.050Z,45.48
2019-03-04T11:26:56.045Z,45.71
2019-03-04T11:29:26.280Z,45.99
2019-03-04T11:31:56.182Z,45.62
2019-03-04T11:34:26.345Z,45.68
2019-03-04T11:36:56.264Z,46.20
2019-03-04T11:39:55.161Z,46.78
2019-03-04T11:42:25.157Z,46.97
2019-03-04T11:44:55.148Z,48.10
2019-03-04T11:47:26.681Z,49.52
2019-03-04T11:49:56.739Z,50.55
2019-03-04T11:52:27.239Z,51.36
2019-03-04T11:54:57.135Z,52.15
2019-03-04T11:57:27.116Z,52.66
2019-03-04T11:59:57.077Z,53.08
2019-03-04T12:02:38.688Z,53.83
2019-03-04T12:05:01.877Z,52.90
2019-03-04T12:07:31.737Z,51.80
2019-03-04T12:10:01.705Z,50.34
2019-03-04T12:12:31.773Z,50.69
2019-03-04T12:15:01.795Z,50.99
2019-03-04T12:17:31.889Z,51.46
2019-03-04T12:20:01.781Z,51.62
2019-03-04T12:22:31.812Z,52.04
2019-03-04T12:25:01.793Z,52.40
2019-03-04T12:27:31.756Z,51.91
2019-03-04T12:30:01.675Z,52.11
2019-03-04T12:32:34.723Z,52.08
2019-03-04T12:35:08.534Z,51.90
2019-03-04T12:37:38.502Z,51.93
2019-03-04T12:40:10.653Z,52.06
2019-03-04T12:42:40.811Z,52.52
2019-03-04T12:45:13.352Z,52.67
2019-03-04T12:47:43.470Z,52.87
2019-03-04T12:50:16.330Z,53.48
2019-03-04T12:52:46.369Z,54.28
2019-03-04T12:55:16.274Z,54.55
2019-03-04T12:57:47.272Z,54.87
2019-03-04T13:00:20.263Z,55.56
2019-03-04T13:02:57.571Z,55.83
2019-03-04T13:05:22.343Z,56.29
2019-03-04T13:07:52.397Z,57.17
2019-03-04T13:10:22.505Z,58.00
2019-03-04T13:12:52.476Z,59.09
2019-03-04T13:15:23.508Z,59.59
2019-03-04T13:17:53.549Z,60.27
2019-03-04T13:20:23.500Z,60.81
2019-03-04T13:22:53.455Z,60.66
2019-03-04T13:25:24.538Z,60.37
2019-03-04T13:27:54.544Z,60.23
2019-03-04T13:30:25.371Z,59.91
2019-03-04T13:32:55.459Z,59.93
2019-03-04T13:35:26.703Z,59.84
2019-03-04T13:37:56.776Z,59.46
2019-03-04T13:40:26.807Z,59.17
2019-03-04T13:42:56.788Z,59.09
2019-03-04T13:45:27.118Z,59.06
2019-03-04T13:47:58.212Z,59.28
2019-03-04T13:50:28.565Z,58.89
2019-03-04T13:52:58.952Z,59.10
2019-03-04T13:55:29.019Z,58.97
2019-03-04T13:57:58.997Z,58.30
2019-03-04T14:00:29.118Z,58.40
2019-03-04T14:02:59.161Z,58.29
2019-03-04T14:05:29.202Z,57.94
2019-03-04T14:07:59.198Z,57.58
2019-03-04T14:10:31.637Z,57.97
2019-03-04T14:13:01.632Z,57.67
2019-03-04T14:15:33.629Z,57.71
2019-03-04T14:18:03.665Z,58.24
2019-03-04T14:20:33.577Z,58.52
2019-03-04T14:23:03.601Z,58.92
2019-03-04T14:25:33.680Z,59.39
2019-03-04T14:28:03.717Z,59.31
2019-03-04T14:30:33.633Z,59.60
2019-03-04T14:33:03.692Z,59.82
2019-03-04T14:35:33.612Z,59.81
2019-03-04T14:38:03.654Z,60.28
2019-03-04T14:40:33.550Z,60.37
2019-03-04T14:43:03.565Z,60.55
2019-03-04T14:45:33.534Z,61.09
2019-03-04T14:48:03.614Z,61.02
2019-03-04T14:50:33.594Z,60.83
2019-03-04T14:53:03.515Z,61.12
2019-03-04T14:55:33.427Z,60.85
2019-03-04T14:58:03.469Z,60.97
2019-03-04T15:00:36.738Z,60.69
2019-03-04T15:03:07.139Z,60.37
2019-03-04T15:05:38.522Z,60.22
2019-03-04T15:08:08.552Z,60.15
2019-03-04T15:10:38.560Z,60.16
2019-03-04T15:13:09.958Z,59.84
2019-03-04T15:15:40.193Z,59.75
2019-03-04T15:18:10.199Z,59.78
2019-03-04T15:20:40.056Z,58.96
2019-03-04T15:23:10.099Z,58.32
2019-03-04T15:25:40.280Z,57.68
2019-03-04T15:28:17.061Z,57.67
2019-03-04T15:30:48.586Z,57.08
2019-03-04T15:33:18.992Z,57.34
2019-03-04T15:35:49.116Z,56.87
2019-03-04T15:38:19.132Z,56.51
2019-03-04T15:40:49.212Z,56.11
2019-03-04T15:43:19.209Z,55.38
2019-03-04T15:45:50.584Z,55.32
2019-03-04T15:48:21.858Z,55.23
2019-03-04T15:50:51.766Z,55.03
2019-03-04T15:53:22.205Z,54.68
2019-03-04T15:55:52.185Z,53.80
2019-03-04T15:58:22.199Z,53.26
2019-03-04T16:00:52.212Z,52.61
2019-03-04T16:03:22.176Z,52.11
2019-03-04T16:05:52.282Z,51.53
2019-03-04T16:08:22.195Z,50.94
2019-03-04T16:10:53.288Z,50.98
2019-03-04T16:13:23.217Z,50.37
2019-03-04T16:15:53.464Z,50.26
2019-03-04T16:18:23.681Z,48.21
2019-03-04T16:20:53.714Z,47.82
2019-03-04T16:23:23.697Z,47.13
2019-03-04T16:25:53.715Z,46.51
2019-03-04T16:28:26.156Z,45.91
2019-03-04T16:30:56.172Z,45.70
2019-03-04T16:33:26.840Z,45.67
2019-03-04T16:35:56.860Z,45.54
2019-03-04T16:38:26.841Z,45.30
2019-03-04T16:40:56.851Z,43.85
2019-03-04T16:43:26.789Z,43.41
2019-03-04T16:45:56.826Z,43.44
2019-03-04T16:48:26.693Z,42.72
2019-03-04T16:50:56.708Z,43.06
2019-03-04T16:53:27.139Z,43.13
2019-03-04T16:55:57.124Z,43.12
2019-03-04T16:58:27.153Z,43.07
2019-03-04T17:00:57.511Z,43.23
2019-03-04T17:03:27.518Z,43.31
2019-03-04T17:05:57.517Z,43.35
2019-03-04T17:08:27.446Z,43.44
2019-03-04T17:10:57.436Z,43.64
2019-03-04T17:13:27.402Z,43.97
2019-03-04T17:15:57.415Z,44.08
2019-03-04T17:18:27.371Z,44.24
2019-03-04T17:20:57.396Z,44.44
2019-03-04T17:23:27.428Z,44.14
2019-03-04T17:25:57.486Z,44.05
2019-03-04T17:28:27.478Z,43.76
2019-03-04T17:30:57.475Z,43.92
2019-03-04T17:33:28.537Z,43.81
2019-03-04T17:35:58.464Z,44.00
2019-03-04T17:38:28.508Z,43.96
2019-03-04T17:41:00.050Z,43.86
2019-03-04T17:43:30.030Z,43.90
2019-03-04T17:46:00.000Z,44.05
2019-03-04T17:48:30.032Z,44.20
2019-03-04T17:51:00.181Z,43.90
2019-03-04T17:53:30.525Z,43.33
2019-03-04T17:56:00.492Z,42.55
2019-03-04T17:58:30.488Z,42.09
2019-03-04T18:01:01.432Z,41.90
2019-03-04T18:03:31.498Z,41.77
2019-03-04T18:06:02.745Z,40.98
2019-03-04T18:08:32.754Z,40.44
2019-03-04T18:11:02.700Z,39.82
2019-03-04T18:13:33.058Z,40.17
2019-03-04T18:16:03.025Z,40.77
2019-03-04T18:18:34.211Z,41.46
2019-03-04T18:21:04.218Z,42.07
2019-03-04T18:23:34.056Z,42.59
2019-03-04T18:26:13.930Z,42.73
2019-03-04T18:29:10.791Z,43.45
2019-03-04T18:31:50.192Z,44.04
2019-03-04T18:35:19.791Z,44.89
2019-03-04T18:38:17.027Z,45.33
2019-03-04T18:41:24.368Z,45.81
2019-03-04T18:44:03.827Z,46.37
2019-03-04T18:46:59.643Z,46.89
2019-03-04T18:49:29.750Z,47.57
2019-03-04T18:51:59.644Z,48.33
2019-03-04T18:54:30.737Z,48.94
2019-03-04T18:57:01.872Z,49.17
2019-03-04T18:59:31.994Z,49.75
2019-03-04T19:02:02.036Z,49.95
2019-03-04T19:04:32.313Z,50.61
2019-03-04T19:07:02.375Z,50.90
2019-03-04T19:09:32.505Z,51.35
2019-03-04T19:12:02.575Z,51.68
2019-03-04T19:14:32.583Z,52.28
2019-03-04T19:17:02.562Z,55.26
2019-03-04T19:19:32.682Z,61.33
2019-03-04T19:22:02.685Z,67.32
2019-03-04T19:24:32.908Z,70.84
2019-03-04T19:27:02.891Z,74.27
2019-03-04T19:29:33.029Z,75.86
2019-03-04T19:32:02.966Z,76.55
2019-03-04T19:34:33.550Z,77.79
2019-03-04T19:37:03.622Z,78.74
2019-03-04T19:39:33.708Z,79.20
2019-03-04T19:42:04.278Z,79.36
2019-03-04T19:44:34.251Z,79.68
2019-03-04T19:47:04.304Z,79.69
2019-03-04T19:49:34.215Z,79.98
2019-03-04T19:52:04.269Z,79.80
2019-03-04T19:54:34.182Z,80.34
2019-03-04T19:57:04.196Z,79.79
2019-03-04T19:59:34.185Z,79.18
2019-03-04T20:02:04.493Z,79.66
2019-03-04T20:04:34.402Z,79.34
2019-03-04T20:07:04.745Z,78.57
2019-03-04T20:09:34.866Z,78.38
2019-03-04T20:12:06.044Z,77.57
2019-03-04T20:14:36.061Z,77.00
2019-03-04T20:17:06.219Z,77.90
2019-03-04T20:19:37.270Z,79.06
2019-03-04T20:22:07.299Z,78.59
2019-03-04T20:24:37.325Z,78.63
2019-03-04T20:27:07.290Z,79.24
2019-03-04T20:29:37.154Z,80.06
2019-03-04T20:32:07.345Z,80.96
2019-03-04T20:34:37.390Z,81.42
2019-03-04T20:37:07.699Z,81.52
2019-03-04T20:39:39.267Z,81.93
2019-03-04T20:42:09.266Z,82.17
2019-03-04T20:44:39.375Z,82.37
2019-03-04T20:47:09.424Z,84.58
2019-03-04T20:49:39.467Z,83.69
2019-03-04T20:52:09.463Z,83.96
2019-03-04T20:54:39.441Z,85.01
2019-03-04T20:57:09.337Z,85.02
2019-03-04T20:59:39.372Z,85.45
2019-03-04T21:02:09.436Z,84.91
2019-03-04T21:04:39.511Z,85.58
2019-03-04T21:07:09.581Z,84.88
2019-03-04T21:09:39.957Z,85.17
2019-03-04T21:12:09.932Z,83.90
2019-03-04T21:14:40.000Z,82.81
2019-03-04T21:17:10.111Z,82.61
2019-03-04T21:19:40.027Z,82.10
2019-03-04T21:22:10.316Z,82.34
2019-03-04T21:24:40.314Z,82.10
2019-03-04T21:27:10.319Z,81.35
2019-03-04T21:30:31.934Z,80.91
2019-03-04T21:33:35.367Z,81.18
2019-03-04T21:36:48.513Z,81.02
2019-03-04T21:39:37.659Z,79.23
2019-03-04T21:42:18.431Z,78.91
2019-03-04T21:45:13.410Z,76.28
2019-03-04T21:47:54.418Z,74.72
2019-03-04T21:50:35.549Z,73.81
2019-03-04T21:53:13.050Z,73.07
2019-03-04T21:55:53.817Z,73.77
2019-03-04T21:58:23.859Z,73.17
2019-03-04T22:01:02.134Z,75.87
2019-03-04T22:03:34.984Z,76.18
2019-03-04T22:06:06.240Z,76.82
2019-03-04T22:08:36.470Z,77.70
2019-03-04T22:11:06.502Z,77.66
2019-03-04T22:13:36.636Z,77.29
2019-03-04T22:16:06.816Z,77.40
2019-03-04T22:18:36.880Z,76.87
2019-03-04T22:21:16.321Z,75.92
2019-03-04T22:23:38.742Z,75.36
2019-03-04T22:26:08.822Z,74.99
2019-03-04T22:28:38.738Z,74.19
2019-03-04T22:31:08.753Z,73.37
2019-03-04T22:33:38.695Z,72.45
2019-03-04T22:36:08.737Z,72.34
2019-03-04T22:38:38.704Z,71.22
2019-03-04T22:41:08.747Z,69.10
2019-03-04T22:43:38.679Z,69.04
2019-03-04T22:46:08.594Z,68.46
2019-03-04T22:48:38.417Z,68.57
2019-03-04T22:51:08.530Z,68.76
2019-03-04T22:53:38.502Z,67.75
2019-03-04T22:56:08.518Z,67.86
2019-03-04T22:58:38.360Z,67.70
2019-03-04T23:01:36.091Z,67.80
2019-03-04T23:04:36.541Z,66.75
2019-03-04T23:07:38.947Z,66.99
2019-03-04T23:10:16.218Z,68.49
2019-03-04T23:15:28.643Z,70.05
2019-03-04T23:17:58.594Z,71.10
2019-03-04T23:20:28.611Z,72.13
2019-03-04T23:22:59.637Z,72.23
2019-03-04T23:25:29.693Z,72.65
2019-03-04T23:27:59.670Z,72.34
2019-03-04T23:30:30.606Z,71.28
2019-03-04T23:33:00.441Z,70.60
2019-03-04T23:35:30.444Z,70.78
2019-03-04T23:38:00.385Z,70.64
2019-03-04T23:40:30.318Z,69.74
2019-03-04T23:43:00.303Z,68.92
2019-03-04T23:45:30.684Z,68.92
2019-03-04T23:48:01.513Z,68.27
2019-03-04T23:50:31.535Z,68.71
2019-03-04T23:53:01.557Z,69.26
2019-03-04T23:55:34.725Z,69.21
2019-03-04T23:58:04.929Z,69.24
